createdAt,value
2022-09-06T00:01:24.666Z,2.80
2022-09-06T00:03:52.030Z,3.58
2022-09-06T00:06:20.109Z,3.00
2022-09-06T00:08:48.061Z,3.28
2022-09-06T00:11:15.555Z,3.00
2022-09-06T00:13:43.032Z,3.30
2022-09-06T00:16:21.522Z,3.40
2022-09-06T00:18:48.723Z,3.47
2022-09-06T00:21:26.631Z,3.22
2022-09-06T00:23:53.928Z,3.33
2022-09-06T00:26:21.902Z,2.92
2022-09-06T00:28:49.269Z,3.20
2022-09-06T00:31:21.371Z,2.92
2022-09-06T00:33:48.677Z,3.10
2022-09-06T00:36:16.022Z,3.05
2022-09-06T00:38:43.350Z,3.50
2022-09-06T00:41:12.006Z,3.00
2022-09-06T00:43:39.256Z,3.00
2022-09-06T00:46:07.773Z,3.63
2022-09-06T00:48:35.620Z,3.50
2022-09-06T00:51:07.836Z,3.13
2022-09-06T00:53:35.043Z,3.47
2022-09-06T00:56:02.786Z,3.42
2022-09-06T00:58:31.304Z,3.70
2022-09-06T01:00:58.687Z,3.20
2022-09-06T01:03:25.780Z,4.13
2022-09-06T01:06:15.066Z,3.60
2022-09-06T01:08:58.687Z,3.27
2022-09-06T01:11:47.397Z,3.47
2022-09-06T01:14:52.072Z,3.38
2022-09-06T01:17:45.735Z,3.60
2022-09-06T01:20:31.878Z,4.43
2022-09-06T01:23:10.972Z,3.50
2022-09-06T01:26:03.988Z,3.42
2022-09-06T01:28:44.583Z,4.03
2022-09-06T01:31:21.116Z,3.80
2022-09-06T01:34:07.273Z,3.60
2022-09-06T01:37:10.183Z,3.47
2022-09-06T01:39:38.754Z,3.20
2022-09-06T01:42:33.126Z,3.55
2022-09-06T01:45:25.090Z,3.05
2022-09-06T01:48:17.472Z,3.25
2022-09-06T01:50:52.332Z,3.10
2022-09-06T01:53:34.950Z,3.00
2022-09-06T01:56:21.308Z,3.00
2022-09-06T01:58:48.379Z,3.63
2022-09-06T02:01:25.027Z,3.28
2022-09-06T02:04:09.593Z,3.35
2022-09-06T02:06:46.434Z,3.45
2022-09-06T02:09:16.350Z,3.50
2022-09-06T02:11:48.964Z,3.75
2022-09-06T02:14:20.163Z,3.30
2022-09-06T02:16:47.947Z,3.35
2022-09-06T02:19:26.232Z,3.40
2022-09-06T02:21:53.427Z,3.65
2022-09-06T02:24:23.875Z,3.45
2022-09-06T02:26:51.175Z,3.45
2022-09-06T02:29:18.420Z,4.03
2022-09-06T02:31:53.199Z,3.40
2022-09-06T02:34:20.404Z,3.80
2022-09-06T02:36:47.565Z,4.05
2022-09-06T02:39:14.859Z,4.00
2022-09-06T02:41:42.498Z,3.83
2022-09-06T02:44:09.647Z,3.65
2022-09-06T02:46:36.943Z,4.38
2022-09-06T02:49:04.255Z,3.92
2022-09-06T02:51:36.355Z,3.70
2022-09-06T02:54:04.025Z,3.90
2022-09-06T02:56:34.549Z,3.70
2022-09-06T02:59:05.117Z,4.53
2022-09-06T03:01:35.832Z,4.05
2022-09-06T03:04:06.311Z,4.07
2022-09-06T03:06:48.066Z,3.83
2022-09-06T03:09:15.276Z,4.05
2022-09-06T03:11:42.392Z,4.25
2022-09-06T03:14:09.828Z,3.75
2022-09-06T03:16:39.075Z,3.80
2022-09-06T03:19:11.243Z,3.63
2022-09-06T03:21:41.701Z,4.25
2022-09-06T03:24:12.194Z,3.97
2022-09-06T03:26:45.445Z,3.58
2022-09-06T03:29:12.621Z,4.07
2022-09-06T03:31:39.839Z,4.20
2022-09-06T03:34:10.934Z,4.18
2022-09-06T03:36:40.960Z,3.85
2022-09-06T03:39:09.594Z,4.18
2022-09-06T03:41:40.365Z,3.92
2022-09-06T03:44:08.132Z,3.80
2022-09-06T03:46:35.515Z,4.03
2022-09-06T03:49:02.742Z,4.10
2022-09-06T03:51:29.979Z,4.07
2022-09-06T03:56:29.281Z,3.88
2022-09-06T03:58:56.497Z,4.10
2022-09-06T04:01:23.875Z,4.70
2022-09-06T04:03:51.196Z,3.90
2022-09-06T04:06:18.210Z,4.20
2022-09-06T04:08:45.707Z,3.92
2022-09-06T04:11:12.855Z,3.88
2022-09-06T04:13:39.972Z,4.22
2022-09-06T04:16:07.402Z,4.28
2022-09-06T04:18:34.580Z,4.15
2022-09-06T04:21:02.985Z,4.70
2022-09-06T04:23:36.488Z,4.20
2022-09-06T04:26:06.790Z,4.32
2022-09-06T04:28:34.422Z,3.88
2022-09-06T04:31:04.977Z,3.78
2022-09-06T04:33:33.722Z,3.90
2022-09-06T04:36:02.193Z,4.22
2022-09-06T04:38:31.033Z,4.38
2022-09-06T04:40:58.237Z,4.53
2022-09-06T04:43:25.743Z,4.18
2022-09-06T04:45:52.852Z,4.20
2022-09-06T04:48:20.131Z,4.13
2022-09-06T04:50:47.473Z,4.28
2022-09-06T04:53:14.670Z,4.70
2022-09-06T04:55:41.834Z,4.95
2022-09-06T04:58:09.267Z,5.60
2022-09-06T05:00:38.866Z,4.75
2022-09-06T05:03:06.079Z,4.82
2022-09-06T05:05:33.579Z,4.95
2022-09-06T05:08:01.891Z,4.88
2022-09-06T05:10:29.043Z,4.85
2022-09-06T05:12:56.464Z,4.78
2022-09-06T05:15:23.960Z,5.10
2022-09-06T05:17:51.219Z,4.80
2022-09-06T05:20:18.837Z,4.50
2022-09-06T05:22:53.377Z,4.43
2022-09-06T05:25:20.756Z,4.85
2022-09-06T05:27:48.056Z,4.65
2022-09-06T05:30:15.830Z,4.75
2022-09-06T05:32:43.140Z,4.63
2022-09-06T05:35:10.215Z,4.82
2022-09-06T05:37:37.387Z,4.63
2022-09-06T05:40:05.001Z,4.55
2022-09-06T05:42:32.587Z,4.75
2022-09-06T05:44:59.614Z,4.25
2022-09-06T05:47:27.105Z,5.28
2022-09-06T05:49:54.528Z,4.80
2022-09-06T05:52:21.647Z,5.05
2022-09-06T05:54:49.000Z,5.22
2022-09-06T05:57:16.133Z,5.22
2022-09-06T05:59:43.245Z,5.60
2022-09-06T06:02:10.557Z,7.28
2022-09-06T06:04:37.721Z,6.45
2022-09-06T06:07:04.976Z,6.22
2022-09-06T06:09:35.383Z,4.97
2022-09-06T06:12:02.740Z,4.47
2022-09-06T06:14:29.835Z,4.93
2022-09-06T06:16:57.212Z,5.28
2022-09-06T06:19:24.446Z,5.05
2022-09-06T06:21:52.542Z,5.43
2022-09-06T06:24:20.195Z,4.90
2022-09-06T06:26:47.350Z,4.80
2022-09-06T06:29:14.652Z,4.88
2022-09-06T06:31:42.131Z,5.38
2022-09-06T06:34:10.529Z,5.22
2022-09-06T06:36:38.256Z,6.88
2022-09-06T06:39:07.386Z,4.75
2022-09-06T06:41:34.562Z,4.93
2022-09-06T06:44:02.894Z,5.10
2022-09-06T06:46:31.772Z,4.93
2022-09-06T06:48:59.063Z,5.18
2022-09-06T06:51:30.847Z,4.65
2022-09-06T06:53:58.158Z,4.97
2022-09-06T06:56:35.589Z,4.72
2022-09-06T06:59:04.462Z,5.32
2022-09-06T07:01:33.104Z,4.45
2022-09-06T07:04:00.708Z,4.65
2022-09-06T07:12:43.076Z,16.38
2022-09-06T07:15:14.447Z,4.70
2022-09-06T07:17:41.697Z,4.65
2022-09-06T07:20:12.647Z,5.03
2022-09-06T07:22:40.738Z,5.40
2022-09-06T07:25:08.812Z,4.88
2022-09-06T07:27:51.260Z,4.22
2022-09-06T07:30:20.386Z,4.80
2022-09-06T07:33:22.691Z,5.03
2022-09-06T07:36:10.139Z,4.43
2022-09-06T07:44:34.622Z,3.60
2022-09-06T08:09:26.403Z,2.33
2022-09-06T08:15:49.211Z,2.17
2022-09-06T08:18:19.884Z,2.63
2022-09-06T08:20:54.512Z,2.63
2022-09-06T08:23:36.001Z,2.13
2022-09-06T08:26:09.922Z,2.13
2022-09-06T08:28:39.917Z,2.17
2022-09-06T08:31:11.939Z,2.70
2022-09-06T08:33:39.441Z,2.20
2022-09-06T08:36:07.387Z,2.63
2022-09-06T08:38:35.543Z,2.00
2022-09-06T08:41:08.328Z,2.05
2022-09-06T08:43:36.399Z,1.95
2022-09-06T08:51:54.508Z,1.98
2022-09-06T09:01:04.127Z,2.20
2022-09-06T09:11:33.538Z,2.10
2022-09-06T09:14:29.543Z,2.55
2022-09-06T09:17:05.610Z,2.13
2022-09-06T09:19:36.902Z,2.25
2022-09-06T09:22:04.311Z,2.60
2022-09-06T09:24:34.382Z,1.50
2022-09-06T09:29:36.307Z,1.80
2022-09-06T09:32:04.176Z,1.70
2022-09-06T09:34:35.446Z,2.03
2022-09-06T09:40:18.009Z,2.50
2022-09-06T09:42:45.330Z,1.70
2022-09-06T09:45:28.561Z,2.50
2022-09-06T09:48:03.804Z,2.40
2022-09-06T09:50:33.120Z,1.70
2022-09-06T09:53:53.603Z,1.98
2022-09-06T09:56:36.118Z,2.30
2022-09-06T09:59:06.261Z,1.80
2022-09-06T10:01:33.961Z,2.05
2022-09-06T10:07:16.310Z,2.33
2022-09-06T10:09:52.737Z,1.60
2022-09-06T10:12:46.638Z,1.42
2022-09-06T10:15:33.612Z,1.85
2022-09-06T10:18:03.030Z,1.75
2022-09-06T10:21:02.349Z,1.52
2022-09-06T10:26:56.589Z,1.88
2022-09-06T10:29:44.151Z,2.42
2022-09-06T10:32:30.368Z,1.90
2022-09-06T10:35:21.182Z,2.30
2022-09-06T10:38:14.541Z,1.95
2022-09-06T10:41:22.928Z,2.60
2022-09-06T10:44:04.652Z,2.22
2022-09-06T10:46:34.025Z,2.20
2022-09-06T10:49:04.535Z,2.40
2022-09-06T10:51:46.339Z,1.80
2022-09-06T10:54:17.149Z,2.17
2022-09-06T10:57:05.107Z,2.25
2022-09-06T10:59:39.706Z,1.50
2022-09-06T11:02:36.376Z,1.88
2022-09-06T11:10:49.971Z,1.77
2022-09-06T11:13:18.770Z,1.98
2022-09-06T11:16:01.466Z,2.13
2022-09-06T11:18:46.803Z,1.77
2022-09-06T11:21:35.665Z,1.90
2022-09-06T11:24:11.322Z,1.95
2022-09-06T11:26:46.156Z,1.65
2022-09-06T11:29:24.247Z,1.92
2022-09-06T11:32:18.188Z,2.20
2022-09-06T11:35:01.568Z,1.90
2022-09-06T11:37:52.069Z,1.80
2022-09-06T11:43:17.279Z,2.17
2022-09-06T11:45:48.997Z,2.05
2022-09-06T11:48:34.625Z,2.03
2022-09-06T11:51:06.969Z,1.85
2022-09-06T11:53:49.431Z,1.90
2022-09-06T11:56:25.978Z,1.90
2022-09-06T11:58:56.741Z,1.92
2022-09-06T12:01:23.917Z,1.77
2022-09-06T12:07:11.954Z,2.00
2022-09-06T12:09:43.132Z,1.90
2022-09-06T12:12:13.594Z,2.50
2022-09-06T12:14:46.892Z,1.80
2022-09-06T12:21:46.698Z,1.63
2022-09-06T12:25:02.868Z,2.00
2022-09-06T12:27:40.928Z,2.13
2022-09-06T12:30:14.355Z,2.05
2022-09-06T12:32:48.793Z,2.03
2022-09-06T12:38:08.746Z,1.83
2022-09-06T12:40:38.800Z,1.58
2022-09-06T12:43:06.154Z,1.90
2022-09-06T12:45:33.685Z,1.90
2022-09-06T12:48:08.841Z,2.00
2022-09-06T12:50:36.904Z,1.65
2022-09-06T12:53:04.984Z,1.70
2022-09-06T12:55:38.863Z,2.05
2022-09-06T12:58:10.442Z,1.50
2022-09-06T13:00:40.830Z,1.95
2022-09-06T13:03:28.149Z,1.75
2022-09-06T13:05:58.285Z,1.83
2022-09-06T13:08:39.965Z,1.42
2022-09-06T13:11:12.748Z,1.67
2022-09-06T13:13:49.321Z,1.33
2022-09-06T13:16:50.391Z,1.88
2022-09-06T13:19:39.390Z,1.70
2022-09-06T13:22:12.524Z,1.60
2022-09-06T13:25:25.575Z,1.50
2022-09-06T13:28:05.079Z,1.90
2022-09-06T13:30:49.029Z,1.45
2022-09-06T13:33:24.887Z,1.58
2022-09-06T13:36:04.952Z,1.45
2022-09-06T13:38:38.248Z,1.52
2022-09-06T13:41:13.551Z,1.88
2022-09-06T13:43:46.341Z,1.77
2022-09-06T13:46:13.652Z,1.85
2022-09-06T13:48:41.945Z,1.52
2022-09-06T13:51:09.888Z,1.52
2022-09-06T13:53:37.494Z,1.50
2022-09-06T13:56:12.749Z,1.45
2022-09-06T13:58:40.307Z,1.85
2022-09-06T14:01:10.621Z,1.77
2022-09-06T14:03:40.085Z,1.48
2022-09-06T14:06:09.448Z,1.30
2022-09-06T14:08:56.320Z,1.33
2022-09-06T14:11:25.756Z,1.88
2022-09-06T14:13:53.172Z,1.40
2022-09-06T14:16:20.646Z,2.00
2022-09-06T14:18:52.261Z,1.60
2022-09-06T14:21:22.643Z,2.00
2022-09-06T14:23:58.887Z,1.80
2022-09-06T14:26:30.824Z,1.55
2022-09-06T14:28:58.246Z,1.33
2022-09-06T14:31:26.860Z,1.73
2022-09-06T14:33:59.488Z,1.90
2022-09-06T14:36:29.474Z,1.60
2022-09-06T14:38:57.935Z,1.50
2022-09-06T14:41:25.274Z,1.60
2022-09-06T14:43:54.650Z,1.83
2022-09-06T14:46:22.582Z,1.75
2022-09-06T14:48:51.396Z,1.33
2022-09-06T14:51:25.145Z,1.90
2022-09-06T14:53:54.981Z,2.03
2022-09-06T14:56:23.825Z,1.65
2022-09-06T14:58:57.681Z,1.65
2022-09-06T15:01:38.400Z,1.63
2022-09-06T15:04:09.133Z,2.10
2022-09-06T15:06:39.271Z,1.98
2022-09-06T15:11:35.515Z,1.80
2022-09-06T15:14:10.052Z,1.70
2022-09-06T15:16:37.480Z,1.90
2022-09-06T15:19:06.513Z,1.70
2022-09-06T15:21:40.022Z,2.30
2022-09-06T15:24:11.713Z,1.60
2022-09-06T15:26:42.836Z,1.92
2022-09-06T15:29:12.034Z,2.00
2022-09-06T15:31:39.404Z,1.98
2022-09-06T15:34:08.363Z,2.08
2022-09-06T15:36:36.286Z,2.03
2022-09-06T15:39:06.042Z,2.13
2022-09-06T15:41:35.806Z,2.08
2022-09-06T15:44:08.684Z,1.58
2022-09-06T15:46:36.780Z,2.65
2022-09-06T15:49:08.110Z,2.00
2022-09-06T15:51:37.760Z,1.60
2022-09-06T15:54:05.526Z,2.20
2022-09-06T15:56:32.957Z,2.00
2022-09-06T15:59:02.159Z,2.75
2022-09-06T16:01:32.147Z,1.83
2022-09-06T16:06:57.105Z,1.52
2022-09-06T16:09:24.872Z,1.90
2022-09-06T16:11:51.930Z,2.08
2022-09-06T16:14:19.604Z,2.45
2022-09-06T16:16:48.136Z,1.88
2022-09-06T16:19:15.205Z,2.40
2022-09-06T16:21:42.864Z,2.00
2022-09-06T16:24:14.524Z,1.73
2022-09-06T16:26:51.582Z,1.90
2022-09-06T16:29:19.327Z,2.28
2022-09-06T16:31:46.794Z,2.35
2022-09-06T16:34:14.249Z,3.20
2022-09-06T16:36:41.976Z,3.90
2022-09-06T16:39:09.411Z,2.63
2022-09-06T16:41:40.100Z,2.03
2022-09-06T16:44:17.050Z,2.58
2022-09-06T16:46:45.614Z,2.00
2022-09-06T16:49:15.948Z,1.92
2022-09-06T16:51:43.861Z,2.33
2022-09-06T16:54:11.145Z,1.98
2022-09-06T16:56:39.616Z,2.33
2022-09-06T16:59:15.459Z,2.15
2022-09-06T17:01:56.046Z,2.40
2022-09-06T17:04:55.385Z,1.70
2022-09-06T17:07:22.670Z,1.90
2022-09-06T17:09:55.435Z,1.92
2022-09-06T17:12:22.977Z,1.95
2022-09-06T17:14:50.036Z,1.60
2022-09-06T17:17:18.065Z,1.77
2022-09-06T17:19:51.877Z,1.40
2022-09-06T17:22:19.081Z,1.33
2022-09-06T17:24:46.313Z,1.75
2022-09-06T17:27:14.223Z,1.60
2022-09-06T17:29:41.306Z,2.00
2022-09-06T17:32:10.625Z,1.60
2022-09-06T17:34:41.158Z,1.17
2022-09-06T17:37:08.296Z,1.52
2022-09-06T17:39:35.628Z,1.55
2022-09-06T17:42:03.054Z,1.60
2022-09-06T17:44:30.308Z,1.70
2022-09-06T17:47:14.108Z,1.33
2022-09-06T17:49:42.963Z,1.40
2022-09-06T17:52:10.393Z,2.03
2022-09-06T17:54:37.673Z,1.55
2022-09-06T17:57:05.128Z,1.60
2022-09-06T17:59:35.421Z,1.50
2022-09-06T18:02:03.932Z,1.80
2022-09-06T18:04:34.189Z,1.67
2022-09-06T18:07:07.337Z,1.38
2022-09-06T18:09:35.103Z,1.45
2022-09-06T18:12:03.106Z,1.23
2022-09-06T18:14:30.337Z,1.52
2022-09-06T18:16:57.746Z,1.55
2022-09-06T18:19:25.301Z,1.40
2022-09-06T18:21:52.435Z,1.38
2022-09-06T18:24:22.898Z,1.40
2022-09-06T18:26:49.988Z,1.33
2022-09-06T18:29:18.571Z,1.52
2022-09-06T18:31:46.011Z,2.08
2022-09-06T18:34:13.256Z,1.70
2022-09-06T18:36:40.473Z,2.60
2022-09-06T18:39:07.967Z,1.50
2022-09-06T18:41:53.992Z,1.67
2022-09-06T18:44:21.820Z,1.58
2022-09-06T18:46:50.094Z,1.42
2022-09-06T18:49:17.580Z,1.60
2022-09-06T18:51:45.851Z,1.45
2022-09-06T18:54:13.732Z,1.35
2022-09-06T18:56:41.473Z,1.40
2022-09-06T18:59:11.166Z,1.30
2022-09-06T19:01:38.692Z,1.10
2022-09-06T19:04:06.281Z,1.38
2022-09-06T19:06:34.372Z,1.10
2022-09-06T19:09:05.196Z,1.40
2022-09-06T19:11:32.758Z,1.63
2022-09-06T19:14:00.695Z,1.10
2022-09-06T19:16:28.585Z,1.25
2022-09-06T19:18:59.784Z,1.80
2022-09-06T19:21:27.781Z,1.20
2022-09-06T19:24:01.596Z,1.90
2022-09-06T19:26:31.814Z,2.28
2022-09-06T19:31:30.346Z,2.63
2022-09-06T19:33:57.727Z,2.08
2022-09-06T19:36:26.622Z,1.52
2022-09-06T19:39:06.274Z,1.95
2022-09-06T19:41:37.169Z,2.50
2022-09-06T19:44:06.047Z,1.83
2022-09-06T19:46:33.780Z,1.73
2022-09-06T19:49:01.057Z,1.23
2022-09-06T19:51:28.410Z,1.90
2022-09-06T19:54:00.126Z,1.50
2022-09-06T19:56:34.191Z,1.83
2022-09-06T19:59:03.753Z,1.30
2022-09-06T20:01:32.976Z,1.55
2022-09-06T20:04:02.727Z,1.42
2022-09-06T20:06:30.982Z,1.00
2022-09-06T20:08:58.573Z,1.23
2022-09-06T20:11:27.988Z,1.00
2022-09-06T20:13:55.091Z,1.35
2022-09-06T20:16:26.420Z,1.45
2022-09-06T20:18:57.065Z,1.00
2022-09-06T20:21:24.537Z,0.80
2022-09-06T20:23:52.966Z,0.90
2022-09-06T20:26:21.226Z,1.00
2022-09-06T20:28:48.950Z,0.88
2022-09-06T20:31:20.866Z,1.05
2022-09-06T20:33:51.176Z,1.13
2022-09-06T20:36:18.574Z,1.30
2022-09-06T20:38:46.345Z,1.00
2022-09-06T20:41:21.196Z,1.20
2022-09-06T20:43:58.524Z,1.30
2022-09-06T20:46:28.239Z,1.20
2022-09-06T20:48:56.910Z,1.20
2022-09-06T20:51:24.258Z,1.73
2022-09-06T20:53:56.019Z,0.98
2022-09-06T20:56:30.956Z,1.20
2022-09-06T20:59:01.076Z,1.55
2022-09-06T21:01:35.960Z,1.27
2022-09-06T21:04:05.504Z,1.50
2022-09-06T21:06:35.846Z,1.00
2022-09-06T21:09:08.198Z,1.15
2022-09-06T21:11:35.366Z,1.42
2022-09-06T21:14:03.079Z,1.10
2022-09-06T21:16:31.580Z,1.88
2022-09-06T21:19:03.525Z,1.25
2022-09-06T21:21:37.124Z,1.55
2022-09-06T21:24:05.457Z,1.83
2022-09-06T21:26:32.692Z,0.95
2022-09-06T21:29:00.333Z,1.30
2022-09-06T21:31:36.244Z,1.30
2022-09-06T21:34:05.619Z,1.13
2022-09-06T21:36:47.917Z,1.48
2022-09-06T21:39:15.377Z,1.08
2022-09-06T21:41:43.606Z,1.40
2022-09-06T21:48:49.659Z,1.30
2022-09-06T21:48:49.835Z,1.48
2022-09-06T21:51:19.296Z,1.30
2022-09-06T21:54:19.102Z,1.33
2022-09-06T21:56:46.810Z,1.20
2022-09-06T21:59:14.235Z,1.05
2022-09-06T22:01:44.035Z,1.17
2022-09-06T22:04:12.332Z,1.30
2022-09-06T22:06:39.669Z,1.05
2022-09-06T22:09:10.944Z,1.20
2022-09-06T22:11:41.739Z,1.67
2022-09-06T22:14:11.261Z,1.45
2022-09-06T22:16:39.233Z,1.75
2022-09-06T22:19:07.054Z,1.50
2022-09-06T22:21:34.316Z,1.08
2022-09-06T22:24:06.859Z,1.42
2022-09-06T22:26:35.218Z,1.15
2022-09-06T22:29:03.825Z,1.30
2022-09-06T22:31:31.975Z,0.93
2022-09-06T22:33:59.309Z,0.98
2022-09-06T22:36:26.555Z,1.00
2022-09-06T22:38:57.608Z,1.38
2022-09-06T22:41:29.208Z,1.02
2022-09-06T22:43:56.571Z,0.90
2022-09-06T22:46:24.062Z,1.35
2022-09-06T22:48:52.267Z,1.15
2022-09-06T22:51:19.397Z,1.30
2022-09-06T22:53:46.579Z,1.15
2022-09-06T22:56:14.094Z,1.10
2022-09-06T22:58:41.244Z,0.98
2022-09-06T23:01:10.595Z,1.00
2022-09-06T23:03:38.267Z,1.23
2022-09-06T23:06:05.526Z,1.10
2022-09-06T23:08:33.638Z,1.00
2022-09-06T23:11:05.394Z,1.20
2022-09-06T23:13:32.482Z,2.03
2022-09-06T23:16:07.213Z,1.73
2022-09-06T23:18:34.612Z,0.90
2022-09-06T23:24:23.402Z,1.08
2022-09-06T23:30:47.910Z,1.17
2022-09-06T23:33:15.165Z,0.90
2022-09-06T23:35:42.431Z,1.20
2022-09-06T23:38:09.870Z,1.45
2022-09-06T23:40:37.524Z,1.50
2022-09-06T23:43:04.726Z,1.52
2022-09-06T23:45:32.084Z,1.00
2022-09-06T23:48:07.293Z,1.20
2022-09-06T23:50:35.549Z,1.00
2022-09-06T23:53:02.904Z,1.15
2022-09-06T23:55:32.557Z,1.02
2022-09-06T23:57:59.562Z,1.30
